createdAt,value
2018-07-14T00:01:59.478Z,101626.56
2018-07-14T00:04:27.958Z,101623.95
2018-07-14T00:06:56.264Z,101619.70
2018-07-14T00:09:24.629Z,101624.08
2018-07-14T00:11:52.960Z,101623.40
2018-07-14T00:14:21.395Z,101629.23
2018-07-14T00:16:49.666Z,101622.62
2018-07-14T00:19:18.059Z,101634.52
2018-07-14T00:21:46.340Z,101633.13
2018-07-14T00:24:14.763Z,101624.69
2018-07-14T00:26:42.961Z,101626.39
2018-07-14T00:29:11.284Z,101634.93
2018-07-14T00:31:39.559Z,101631.79
2018-07-14T00:34:07.906Z,101628.31
2018-07-14T00:36:36.182Z,101630.23
2018-07-14T00:39:05.148Z,101631.59
2018-07-14T00:41:33.517Z,101626.24
2018-07-14T00:44:01.786Z,101620.10
2018-07-14T00:46:30.028Z,101622.31
2018-07-14T00:48:58.294Z,101617.32
2018-07-14T00:51:26.544Z,101615.69
2018-07-14T00:53:54.796Z,101619.55
2018-07-14T00:56:22.999Z,101617.17
2018-07-14T00:58:51.352Z,101619.86
2018-07-14T01:01:19.600Z,101623.60
2018-07-14T01:03:47.853Z,101615.84
2018-07-14T01:06:16.144Z,101622.42
2018-07-14T01:08:44.342Z,101617.39
2018-07-14T01:11:12.636Z,101617.47
2018-07-14T01:13:40.989Z,101621.78
2018-07-14T01:16:09.267Z,101620.61
2018-07-14T01:18:37.527Z,101626.11
2018-07-14T01:21:05.772Z,101624.47
2018-07-14T01:23:34.011Z,101627.08
2018-07-14T01:26:02.268Z,101622.59
2018-07-14T01:28:30.577Z,101623.15
2018-07-14T01:30:58.880Z,101625.31
2018-07-14T01:33:27.176Z,101629.44
2018-07-14T01:35:55.425Z,101628.48
2018-07-14T01:38:23.674Z,101623.31
2018-07-14T01:40:51.923Z,101632.52
2018-07-14T01:43:20.179Z,101624.56
2018-07-14T01:45:48.422Z,101629.44
2018-07-14T01:48:16.648Z,101623.81
2018-07-14T01:50:45.064Z,101629.74
2018-07-14T01:53:13.406Z,101631.34
2018-07-14T01:55:41.763Z,101620.97
2018-07-14T01:58:10.075Z,101623.02
2018-07-14T02:00:38.361Z,101629.05
2018-07-14T02:03:06.777Z,101624.52
2018-07-14T02:05:35.084Z,101629.29
2018-07-14T02:08:03.340Z,101631.11
2018-07-14T02:10:31.611Z,101632.71
2018-07-14T02:12:59.885Z,101629.20
2018-07-14T02:15:28.155Z,101630.64
2018-07-14T02:17:56.491Z,101622.73
2018-07-14T02:20:24.746Z,101616.28
2018-07-14T02:22:53.175Z,101622.41
2018-07-14T02:25:21.685Z,101618.00
2018-07-14T02:27:50.207Z,101622.80
2018-07-14T02:30:18.460Z,101624.07
2018-07-14T02:32:46.746Z,101623.00
2018-07-14T02:35:14.994Z,101625.66
2018-07-14T02:37:43.241Z,101621.77
2018-07-14T02:40:11.505Z,101627.21
2018-07-14T02:42:39.739Z,101628.17
2018-07-14T02:45:08.272Z,101630.75
2018-07-14T02:47:36.482Z,101624.23
2018-07-14T02:50:04.819Z,101620.78
2018-07-14T02:52:33.051Z,101625.11
2018-07-14T02:55:01.321Z,101632.25
2018-07-14T02:57:29.546Z,101630.00
2018-07-14T02:59:57.813Z,101629.77
2018-07-14T03:02:26.069Z,101626.19
2018-07-14T03:04:54.304Z,101625.03
2018-07-14T03:07:22.548Z,101623.50
2018-07-14T03:09:50.744Z,101630.61
2018-07-14T03:12:18.995Z,101627.82
2018-07-14T03:14:47.220Z,101628.10
2018-07-14T03:17:15.498Z,101626.57
2018-07-14T03:19:43.760Z,101631.55
2018-07-14T03:22:11.997Z,101636.91
2018-07-14T03:24:40.230Z,101633.37
2018-07-14T03:27:08.499Z,101639.16
2018-07-14T03:29:36.772Z,101632.07
2018-07-14T03:32:05.011Z,101628.02
2018-07-14T03:34:33.269Z,101634.02
2018-07-14T03:37:01.496Z,101626.55
2018-07-14T03:39:29.746Z,101632.34
2018-07-14T03:41:58.002Z,101639.98
2018-07-14T03:44:26.256Z,101640.83
2018-07-14T03:46:54.505Z,101636.51
2018-07-14T03:49:22.728Z,101642.77
2018-07-14T03:51:51.197Z,101642.77
2018-07-14T03:54:19.559Z,101640.15
2018-07-14T03:56:47.875Z,101648.40
2018-07-14T03:59:16.095Z,101645.02
2018-07-14T04:01:44.370Z,101646.57
2018-07-14T04:04:12.622Z,101640.32
2018-07-14T04:06:40.866Z,101644.77
2018-07-14T04:09:09.177Z,101648.36
2018-07-14T04:11:37.503Z,101640.40
2018-07-14T04:14:05.775Z,101644.26
2018-07-14T04:16:34.060Z,101639.24
2018-07-14T04:19:02.379Z,101642.91
2018-07-14T04:21:30.726Z,101642.15
2018-07-14T04:23:59.043Z,101640.55
2018-07-14T04:26:27.422Z,101642.47
2018-07-14T04:28:55.628Z,101642.19
2018-07-14T04:31:23.869Z,101643.49
2018-07-14T04:33:52.106Z,101639.63
2018-07-14T04:36:20.382Z,101637.20
2018-07-14T04:38:48.667Z,101641.21
2018-07-14T04:41:16.910Z,101642.25
2018-07-14T04:43:45.167Z,101649.19
2018-07-14T04:46:13.447Z,101646.27
2018-07-14T04:48:41.704Z,101647.91
2018-07-14T04:51:09.951Z,101649.16
2018-07-14T04:53:38.337Z,101637.91
2018-07-14T04:56:06.695Z,101647.16
2018-07-14T04:58:35.002Z,101649.41
2018-07-14T05:01:03.291Z,101651.56
2018-07-14T05:03:31.583Z,101644.13
2018-07-14T05:05:59.860Z,101651.28
2018-07-14T05:08:28.234Z,101642.91
2018-07-14T05:10:56.425Z,101644.13
2018-07-14T05:13:24.645Z,101635.65
2018-07-14T05:15:52.868Z,101639.99
2018-07-14T05:18:21.097Z,101638.46
2018-07-14T05:20:49.444Z,101643.83
2018-07-14T05:23:17.685Z,101646.29
2018-07-14T05:25:45.963Z,101645.02
2018-07-14T05:28:14.201Z,101647.16
2018-07-14T05:30:42.454Z,101642.44
2018-07-14T05:33:10.671Z,101645.55
2018-07-14T05:35:38.926Z,101643.02
2018-07-14T05:38:07.127Z,101646.56
2018-07-14T05:40:35.329Z,101644.47
2018-07-14T05:43:03.561Z,101648.14
2018-07-14T05:45:31.860Z,101651.46
2018-07-14T05:48:00.119Z,101652.08
2018-07-14T05:50:28.354Z,101650.91
2018-07-14T05:52:57.329Z,101658.20
2018-07-14T05:55:26.076Z,101672.16
2018-07-14T05:57:54.317Z,101671.45
2018-07-14T06:00:22.648Z,101669.82
2018-07-14T06:02:51.490Z,101672.50
2018-07-14T06:05:19.774Z,101676.11
2018-07-14T06:07:48.059Z,101676.33
2018-07-14T06:10:16.237Z,101681.34
2018-07-14T06:12:44.506Z,101679.34
2018-07-14T06:15:12.807Z,101678.33
2018-07-14T06:17:41.034Z,101666.34
2018-07-14T06:20:10.155Z,101663.41
2018-07-14T06:22:38.429Z,101667.89
2018-07-14T06:25:06.938Z,101671.80
2018-07-14T06:27:35.250Z,101675.45
2018-07-14T06:30:03.625Z,101682.01
2018-07-14T06:32:31.935Z,101675.78
2018-07-14T06:35:00.267Z,101670.95
2018-07-14T06:37:28.594Z,101680.06
2018-07-14T06:39:56.951Z,101683.52
2018-07-14T06:42:25.393Z,101678.45
2018-07-14T06:44:53.822Z,101683.54
2018-07-14T06:47:21.978Z,101679.95
2018-07-14T06:49:50.200Z,101681.35
2018-07-14T06:52:18.409Z,101678.99
2018-07-14T06:54:47.464Z,101679.81
2018-07-14T06:57:15.830Z,101686.28
2018-07-14T06:59:44.102Z,101681.13
2018-07-14T07:02:12.359Z,101683.99
2018-07-14T07:04:41.085Z,101684.67
2018-07-14T07:07:09.448Z,101683.27
2018-07-14T07:09:37.757Z,101687.94
2018-07-14T07:12:05.985Z,101688.62
2018-07-14T07:14:34.233Z,101688.19
2018-07-14T07:17:02.515Z,101682.86
2018-07-14T07:19:30.829Z,101685.09
2018-07-14T07:22:05.155Z,101689.42
2018-07-14T07:24:33.353Z,101692.69
2018-07-14T07:27:01.629Z,101697.10
2018-07-14T07:29:29.808Z,101694.16
2018-07-14T07:31:58.092Z,101699.59
2018-07-14T07:34:26.235Z,101692.43
2018-07-14T07:36:54.462Z,101703.06
2018-07-14T07:39:22.647Z,101703.11
2018-07-14T07:41:50.956Z,101698.48
2018-07-14T07:44:19.313Z,101709.91
2018-07-14T07:46:47.565Z,101705.13
2018-07-14T07:49:15.758Z,101712.10
2018-07-14T07:51:44.051Z,101712.42
2018-07-14T07:54:12.290Z,101712.42
2018-07-14T07:56:40.455Z,101715.02
2018-07-14T07:59:08.736Z,101721.22
2018-07-14T08:01:36.893Z,101719.70
2018-07-14T08:04:05.134Z,101712.04
2018-07-14T08:06:33.356Z,101712.55
2018-07-14T08:09:01.584Z,101712.88
2018-07-14T08:11:29.791Z,101710.88
2018-07-14T08:13:58.027Z,101709.05
2018-07-14T08:16:26.255Z,101705.92
2018-07-14T08:18:54.539Z,101704.98
2018-07-14T08:21:22.803Z,101701.38
2018-07-14T08:23:51.036Z,101698.22
2018-07-14T08:26:19.334Z,101699.30
2018-07-14T08:28:47.557Z,101697.23
2018-07-14T08:31:15.829Z,101707.27
2018-07-14T08:33:44.013Z,101703.48
2018-07-14T08:36:12.331Z,101709.26
2018-07-14T08:38:40.683Z,101707.02
2018-07-14T08:41:09.281Z,101704.85
2018-07-14T08:43:37.513Z,101703.75
2018-07-14T08:46:05.754Z,101705.80
2018-07-14T08:48:34.019Z,101703.36
2018-07-14T08:51:02.240Z,101699.53
2018-07-14T08:53:30.432Z,101709.33
2018-07-14T08:55:58.580Z,101702.22
2018-07-14T08:58:29.527Z,101704.80
2018-07-14T09:00:59.201Z,101706.54
2018-07-14T09:03:27.535Z,101709.59
2018-07-14T09:05:56.321Z,101711.47
2018-07-14T09:08:24.608Z,101704.95
2018-07-14T09:10:52.780Z,101703.84
2018-07-14T09:13:21.048Z,101705.20
2018-07-14T09:15:49.275Z,101707.95
2018-07-14T09:18:17.560Z,101709.70
2018-07-14T09:20:45.842Z,101709.23
2018-07-14T09:23:14.089Z,101717.02
2018-07-14T09:25:42.347Z,101717.95
2018-07-14T09:28:11.398Z,101710.62
2018-07-14T09:30:39.561Z,101711.99
2018-07-14T09:33:07.787Z,101715.05
2018-07-14T09:35:36.101Z,101712.50
2018-07-14T09:38:04.351Z,101712.53
2018-07-14T09:40:32.525Z,101707.95
2018-07-14T09:43:00.696Z,101714.47
2018-07-14T09:45:28.931Z,101713.36
2018-07-14T09:47:57.093Z,101713.34
2018-07-14T09:50:25.316Z,101709.48
2018-07-14T09:52:53.531Z,101704.11
2018-07-14T09:55:21.766Z,101703.97
2018-07-14T09:57:49.932Z,101704.84
2018-07-14T10:00:23.519Z,101707.49
2018-07-14T10:02:52.522Z,101706.62
2018-07-14T10:05:20.856Z,101709.48
2018-07-14T10:07:49.113Z,101718.48
2018-07-14T10:10:17.397Z,101711.39
2018-07-14T10:12:45.626Z,101713.36
2018-07-14T10:15:13.862Z,101714.66
2018-07-14T10:17:42.145Z,101713.91
2018-07-14T10:20:10.609Z,101701.56
2018-07-14T10:22:38.805Z,101708.20
2018-07-14T10:25:07.088Z,101708.45
2018-07-14T10:27:35.253Z,101707.65
2018-07-14T10:30:03.562Z,101706.50
2018-07-14T10:32:31.726Z,101709.23
2018-07-14T10:35:00.106Z,101702.34
2018-07-14T10:37:28.301Z,101708.92
2018-07-14T10:39:56.506Z,101711.75
2018-07-14T10:42:24.719Z,101710.51
2018-07-14T10:44:52.912Z,101717.10
2018-07-14T10:47:21.221Z,101715.97
2018-07-14T10:49:49.449Z,101717.55
2018-07-14T10:52:17.765Z,101715.43
2018-07-14T10:54:46.022Z,101712.44
2018-07-14T10:57:14.186Z,101705.30
2018-07-14T10:59:42.399Z,101717.25
2018-07-14T11:02:10.623Z,101717.27
2018-07-14T11:04:38.841Z,101714.58
2018-07-14T11:07:07.110Z,101711.69
2018-07-14T11:09:35.339Z,101714.13
2018-07-14T11:12:03.624Z,101710.33
2018-07-14T11:14:31.854Z,101708.46
2018-07-14T11:17:00.073Z,101712.30
2018-07-14T11:19:28.247Z,101712.87
2018-07-14T11:21:56.565Z,101709.83
2018-07-14T11:24:24.955Z,101711.21
2018-07-14T11:26:53.151Z,101709.32
2018-07-14T11:29:21.396Z,101708.22
2018-07-14T11:31:50.171Z,101706.06
2018-07-14T11:34:18.393Z,101701.97
2018-07-14T11:36:46.601Z,101697.31
2018-07-14T11:39:14.901Z,101698.66
2018-07-14T11:41:43.115Z,101688.84
2018-07-14T11:44:11.402Z,101682.34
2018-07-14T11:46:39.613Z,101680.96
2018-07-14T11:49:07.812Z,101674.41
2018-07-14T11:51:36.002Z,101676.31
2018-07-14T11:54:04.288Z,101674.66
2018-07-14T11:56:32.474Z,101664.88
2018-07-14T11:59:00.767Z,101668.34
2018-07-14T12:01:29.187Z,101663.64
2018-07-14T12:03:57.352Z,101658.71
2018-07-14T12:06:25.500Z,101662.02
2018-07-14T12:08:53.695Z,101654.56
2018-07-14T12:11:21.864Z,101651.20
2018-07-14T12:13:50.302Z,101645.94
2018-07-14T12:16:18.500Z,101648.80
2018-07-14T12:18:46.782Z,101645.70
2018-07-14T12:21:15.007Z,101646.52
2018-07-14T12:23:43.272Z,101641.80
2018-07-14T12:26:11.489Z,101644.72
2018-07-14T12:28:39.688Z,101641.70
2018-07-14T12:31:07.840Z,101637.03
2018-07-14T12:33:36.082Z,101634.05
2018-07-14T12:36:04.340Z,101630.52
2018-07-14T12:38:32.581Z,101624.14
2018-07-14T12:41:00.801Z,101620.67
2018-07-14T12:43:29.039Z,101614.25
2018-07-14T12:45:57.203Z,101619.40
2018-07-14T12:48:25.381Z,101615.84
2018-07-14T12:50:53.584Z,101610.31
2018-07-14T12:53:21.884Z,101611.79
2018-07-14T12:55:50.118Z,101612.58
2018-07-14T12:58:18.274Z,101609.01
2018-07-14T13:00:46.525Z,101609.01
2018-07-14T13:03:14.716Z,101597.91
2018-07-14T13:05:43.056Z,101593.88
2018-07-14T13:08:11.314Z,101590.84
2018-07-14T13:10:39.550Z,101592.19
2018-07-14T13:13:07.918Z,101597.73
2018-07-14T13:15:36.125Z,101585.05
2018-07-14T13:18:04.325Z,101585.50
2018-07-14T13:20:32.559Z,101589.81
2018-07-14T13:23:00.798Z,101582.37
2018-07-14T13:25:28.972Z,101584.98
2018-07-14T13:27:57.285Z,101587.08
2018-07-14T13:30:25.509Z,101588.00
2018-07-14T13:32:53.841Z,101590.17
2018-07-14T13:35:22.053Z,101582.95
2018-07-14T13:37:50.285Z,101579.92
2018-07-14T13:40:18.575Z,101580.38
2018-07-14T13:42:46.892Z,101578.31
2018-07-14T13:45:16.287Z,101584.80
2018-07-14T13:47:44.605Z,101576.78
2018-07-14T13:50:12.864Z,101576.06
2018-07-14T13:52:41.264Z,101568.22
2018-07-14T13:55:09.441Z,101564.98
2018-07-14T13:57:37.976Z,101555.63
2018-07-14T14:00:06.652Z,101556.43
2018-07-14T14:02:34.896Z,101556.19
2018-07-14T14:05:03.191Z,101558.66
2018-07-14T14:07:31.417Z,101552.51
2018-07-14T14:09:59.604Z,101546.04
2018-07-14T14:12:27.862Z,101548.92
2018-07-14T14:14:56.052Z,101540.14
2018-07-14T14:17:25.493Z,101540.36
2018-07-14T14:19:53.706Z,101539.90
2018-07-14T14:22:21.938Z,101533.42
2018-07-14T14:24:50.125Z,101525.59
2018-07-14T14:27:18.319Z,101526.83
2018-07-14T14:29:46.474Z,101518.97
2018-07-14T14:32:14.678Z,101521.19
2018-07-14T14:34:42.882Z,101523.06
2018-07-14T14:37:11.122Z,101527.13
2018-07-14T14:39:39.282Z,101530.12
2018-07-14T14:42:07.704Z,101523.22
2018-07-14T14:44:35.936Z,101522.41
2018-07-14T14:47:04.147Z,101530.70
2018-07-14T14:49:32.313Z,101524.12
2018-07-14T14:52:00.523Z,101521.49
2018-07-14T14:54:28.750Z,101520.36
2018-07-14T14:56:57.059Z,101511.52
2018-07-14T14:59:25.300Z,101521.17
2018-07-14T15:01:53.627Z,101520.92
2018-07-14T15:04:21.886Z,101518.48
2018-07-14T15:06:50.164Z,101515.25
2018-07-14T15:09:18.467Z,101508.39
2018-07-14T15:11:46.664Z,101502.55
2018-07-14T15:14:14.839Z,101514.52
2018-07-14T15:16:43.044Z,101509.32
2018-07-14T15:19:11.395Z,101504.61
2018-07-14T15:21:39.680Z,101515.23
2018-07-14T15:24:08.165Z,101502.66
2018-07-14T15:26:36.374Z,101512.89
2018-07-14T15:29:04.574Z,101510.08
2018-07-14T15:31:32.793Z,101506.42
2018-07-14T15:34:01.001Z,101513.20
2018-07-14T15:36:29.232Z,101509.33
2018-07-14T15:38:57.406Z,101510.82
2018-07-14T15:41:25.744Z,101511.67
2018-07-14T15:43:53.936Z,101510.88
2018-07-14T15:46:22.161Z,101503.63
2018-07-14T15:48:50.437Z,101508.22
2018-07-14T15:51:18.691Z,101502.78
2018-07-14T15:53:46.967Z,101503.70
2018-07-14T15:56:15.159Z,101501.14
2018-07-14T15:58:43.393Z,101498.51
2018-07-14T16:01:11.609Z,101496.05
2018-07-14T16:03:39.808Z,101493.11
2018-07-14T16:06:08.063Z,101493.34
2018-07-14T16:08:36.333Z,101486.03
2018-07-14T16:11:04.545Z,101494.11
2018-07-14T16:13:34.440Z,101484.25
2018-07-14T16:16:03.577Z,101483.43
2018-07-14T16:18:34.279Z,101479.98
2018-07-14T16:21:03.703Z,101485.33
2018-07-14T16:23:31.926Z,101486.70
2018-07-14T16:26:00.113Z,101482.73
2018-07-14T16:28:28.361Z,101484.48
2018-07-14T16:30:56.686Z,101485.48
2018-07-14T16:33:24.988Z,101488.17
2018-07-14T16:35:53.891Z,101486.39
2018-07-14T16:38:22.074Z,101484.37
2018-07-14T16:40:50.566Z,101476.37
2018-07-14T16:43:18.780Z,101482.84
2018-07-14T16:45:46.974Z,101475.16
2018-07-14T16:48:15.188Z,101475.89
2018-07-14T16:50:43.333Z,101475.45
2018-07-14T16:53:11.591Z,101478.08
2018-07-14T16:55:39.801Z,101477.91
2018-07-14T16:58:08.045Z,101485.13
2018-07-14T17:00:36.207Z,101477.94
2018-07-14T17:03:04.436Z,101484.37
2018-07-14T17:05:32.601Z,101477.14
2018-07-14T17:08:00.960Z,101480.95
2018-07-14T17:10:29.215Z,101482.01
2018-07-14T17:12:57.535Z,101482.91
2018-07-14T17:15:25.755Z,101490.25
2018-07-14T17:17:54.005Z,101488.13
2018-07-14T17:20:22.234Z,101481.56
2018-07-14T17:22:50.441Z,101484.10
2018-07-14T17:25:18.692Z,101478.02
2018-07-14T17:27:46.901Z,101478.38
2018-07-14T17:30:15.400Z,101480.28
2018-07-14T17:32:43.625Z,101480.03
2018-07-14T17:35:11.878Z,101482.38
2018-07-14T17:37:40.126Z,101481.34
2018-07-14T17:40:08.382Z,101487.16
2018-07-14T17:42:36.643Z,101486.69
2018-07-14T17:45:05.306Z,101487.94
2018-07-14T17:47:33.565Z,101484.45
2018-07-14T17:50:02.000Z,101481.56
2018-07-14T17:52:30.259Z,101485.27
2018-07-14T17:54:58.483Z,101482.88
2018-07-14T17:57:26.836Z,101486.73
2018-07-14T17:59:55.125Z,101481.55
2018-07-14T18:02:23.326Z,101483.19
2018-07-14T18:04:51.684Z,101480.92
2018-07-14T18:07:20.001Z,101483.65
2018-07-14T18:09:48.204Z,101478.56
2018-07-14T18:12:17.738Z,101483.43
2018-07-14T18:14:45.946Z,101475.70
2018-07-14T18:17:14.173Z,101477.84
2018-07-14T18:19:42.387Z,101474.05
2018-07-14T18:22:10.805Z,101471.30
2018-07-14T18:24:39.053Z,101477.97
2018-07-14T18:27:07.283Z,101481.42
2018-07-14T18:29:35.439Z,101479.34
2018-07-14T18:32:03.688Z,101479.95
2018-07-14T18:34:31.873Z,101482.16
2018-07-14T18:37:00.169Z,101480.81
2018-07-14T18:39:28.373Z,101488.57
2018-07-14T18:41:56.740Z,101481.37
2018-07-14T18:44:25.177Z,101486.03
2018-07-14T18:46:53.413Z,101489.38
2018-07-14T18:49:21.630Z,101493.94
2018-07-14T18:51:49.919Z,101488.19
2018-07-14T18:54:18.402Z,101493.87
2018-07-14T18:56:46.743Z,101494.22
2018-07-14T18:59:15.006Z,101498.86
2018-07-14T19:01:43.297Z,101493.39
2018-07-14T19:04:11.570Z,101494.86
2018-07-14T19:06:39.841Z,101496.28
2018-07-14T19:09:08.144Z,101496.86
2018-07-14T19:11:37.226Z,101493.36
2018-07-14T19:14:05.567Z,101501.83
2018-07-14T19:16:33.786Z,101503.12
2018-07-14T19:19:02.027Z,101501.23
2018-07-14T19:21:30.380Z,101497.63
2018-07-14T19:23:58.597Z,101501.47
2018-07-14T19:26:26.812Z,101498.53
2018-07-14T19:28:55.035Z,101495.30
2018-07-14T19:31:23.238Z,101495.79
2018-07-14T19:33:51.554Z,101493.38
2018-07-14T19:36:19.793Z,101500.97
2018-07-14T19:38:48.036Z,101496.55
2018-07-14T19:41:16.246Z,101503.38
2018-07-14T19:43:44.509Z,101499.59
2018-07-14T19:46:12.744Z,101500.33
2018-07-14T19:48:41.069Z,101504.11
2018-07-14T19:51:09.443Z,101502.78
2018-07-14T19:53:38.455Z,101503.56
2018-07-14T19:56:06.790Z,101505.48
2018-07-14T19:58:34.873Z,101502.17
2018-07-14T20:01:03.092Z,101502.75
2018-07-14T20:03:31.342Z,101499.48
2018-07-14T20:05:59.555Z,101499.84
2018-07-14T20:08:27.789Z,101495.68
2018-07-14T20:10:56.140Z,101498.72
2018-07-14T20:13:24.467Z,101505.41
2018-07-14T20:15:52.681Z,101502.91
2018-07-14T20:18:20.912Z,101499.55
2018-07-14T20:20:49.488Z,101494.67
2018-07-14T20:23:17.839Z,101497.44
2018-07-14T20:25:46.177Z,101492.56
2018-07-14T20:28:14.445Z,101492.83
2018-07-14T20:30:42.683Z,101496.06
2018-07-14T20:33:11.011Z,101494.95
2018-07-14T20:35:39.301Z,101498.91
2018-07-14T20:38:07.783Z,101499.39
2018-07-14T20:40:36.198Z,101503.48
2018-07-14T20:43:04.516Z,101501.58
2018-07-14T20:45:32.876Z,101510.34
2018-07-14T20:48:01.127Z,101511.19
2018-07-14T20:50:29.397Z,101501.70
2018-07-14T20:52:57.669Z,101508.47
2018-07-14T20:55:25.885Z,101508.47
2018-07-14T20:57:54.089Z,101507.58
2018-07-14T21:00:22.338Z,101508.15
2018-07-14T21:02:50.932Z,101504.58
2018-07-14T21:05:19.367Z,101502.69
2018-07-14T21:07:47.893Z,101504.31
2018-07-14T21:10:16.115Z,101506.48
2018-07-14T21:12:44.387Z,101505.13
2018-07-14T21:15:12.755Z,101502.38
2018-07-14T21:17:41.139Z,101502.41
2018-07-14T21:20:09.762Z,101506.19
2018-07-14T21:22:38.038Z,101509.50
2018-07-14T21:25:06.483Z,101508.65
2018-07-14T21:27:34.780Z,101505.67
2018-07-14T21:30:02.985Z,101503.53
2018-07-14T21:32:31.240Z,101501.89
2018-07-14T21:34:59.469Z,101503.80
2018-07-14T21:37:27.754Z,101500.52
2018-07-14T21:39:55.976Z,101506.81
2018-07-14T21:42:24.230Z,101503.80
2018-07-14T21:44:52.389Z,101499.25
2018-07-14T21:47:20.619Z,101507.18
2018-07-14T21:49:48.780Z,101510.97
2018-07-14T21:52:17.038Z,101517.50
2018-07-14T21:54:45.293Z,101522.72
2018-07-14T21:57:13.486Z,101520.56
2018-07-14T21:59:41.797Z,101515.38
2018-07-14T22:02:10.011Z,101520.84
2018-07-14T22:04:38.214Z,101515.11
2018-07-14T22:07:06.452Z,101518.67
2018-07-14T22:09:34.743Z,101525.75
2018-07-14T22:12:03.118Z,101524.91
2018-07-14T22:14:31.357Z,101518.41
2018-07-14T22:16:59.617Z,101523.53
2018-07-14T22:19:27.852Z,101528.20
2018-07-14T22:21:56.177Z,101529.55
2018-07-14T22:24:27.085Z,101527.93
2018-07-14T22:26:56.958Z,101522.19
2018-07-14T22:29:28.542Z,101528.72
2018-07-14T22:31:59.339Z,101523.81
2018-07-14T22:34:28.280Z,101532.53
2018-07-14T22:36:59.426Z,101530.33
2018-07-14T22:39:29.147Z,101525.47
2018-07-14T22:42:00.554Z,101522.19
2018-07-14T22:44:30.610Z,101522.75
2018-07-14T22:47:02.623Z,101520.54
2018-07-14T22:49:33.487Z,101520.30
2018-07-14T22:52:04.241Z,101525.47
2018-07-14T22:54:33.554Z,101521.65
2018-07-14T22:57:06.307Z,101521.09
2018-07-14T22:59:41.776Z,101518.91
2018-07-14T23:02:11.297Z,101520.81
2018-07-14T23:04:43.155Z,101517.56
2018-07-14T23:07:14.973Z,101519.45
2018-07-14T23:12:16.956Z,101513.97
2018-07-14T23:14:45.246Z,101519.93
2018-07-14T23:17:13.588Z,101516.43
2018-07-14T23:19:41.754Z,101511.52
2018-07-14T23:22:09.986Z,101521.28
2018-07-14T23:24:38.209Z,101523.59
2018-07-14T23:27:06.382Z,101518.24
2018-07-14T23:29:35.372Z,101515.53
2018-07-14T23:32:03.650Z,101510.91
2018-07-14T23:34:31.849Z,101505.47
2018-07-14T23:37:00.153Z,101510.86
2018-07-14T23:39:28.347Z,101508.95
2018-07-14T23:41:56.717Z,101510.04
2018-07-14T23:44:24.887Z,101506.11
2018-07-14T23:46:53.122Z,101509.11
2018-07-14T23:49:21.345Z,101508.63
2018-07-14T23:51:50.513Z,101503.59
2018-07-14T23:54:18.737Z,101503.81
2018-07-14T23:56:47.145Z,101508.61
2018-07-14T23:59:15.309Z,101506.39
